sensor_id;sensor_type;location;lat;lon;timestamp;temperature;humidity
22173;DHT22;11252;50.596;17.648;2023-02-12T00:01:18;5.10;92.20
22173;DHT22;11252;50.596;17.648;2023-02-12T00:03:46;5.10;92.20
22173;DHT22;11252;50.596;17.648;2023-02-12T00:06:13;5.20;92.20
22173;DHT22;11252;50.596;17.648;2023-02-12T00:08:42;5.20;92.20
22173;DHT22;11252;50.596;17.648;2023-02-12T00:11:12;5.20;92.20
22173;DHT22;11252;50.596;17.648;2023-02-12T00:13:40;5.20;92.20
22173;DHT22;11252;50.596;17.648;2023-02-12T00:16:12;5.20;92.20
22173;DHT22;11252;50.596;17.648;2023-02-12T00:18:39;5.10;92.20
22173;DHT22;11252;50.596;17.648;2023-02-12T00:21:07;5.20;92.20
22173;DHT22;11252;50.596;17.648;2023-02-12T00:23:37;5.20;92.20
22173;DHT22;11252;50.596;17.648;2023-02-12T00:26:15;5.20;92.20
22173;DHT22;11252;50.596;17.648;2023-02-12T00:28:43;5.10;92.20
22173;DHT22;11252;50.596;17.648;2023-02-12T00:31:14;5.20;92.20
22173;DHT22;11252;50.596;17.648;2023-02-12T00:33:41;5.20;92.20
22173;DHT22;11252;50.596;17.648;2023-02-12T00:36:12;5.20;92.20
22173;DHT22;11252;50.596;17.648;2023-02-12T00:38:40;5.10;92.20
22173;DHT22;11252;50.596;17.648;2023-02-12T00:41:07;5.20;92.20
22173;DHT22;11252;50.596;17.648;2023-02-12T00:43:34;5.20;92.20
22173;DHT22;11252;50.596;17.648;2023-02-12T00:46:02;5.20;92.20
22173;DHT22;11252;50.596;17.648;2023-02-12T00:48:31;5.30;92.20
22173;DHT22;11252;50.596;17.648;2023-02-12T00:50:59;5.20;92.20
22173;DHT22;11252;50.596;17.648;2023-02-12T00:53:27;5.20;92.20
22173;DHT22;11252;50.596;17.648;2023-02-12T00:55:55;5.20;92.20
22173;DHT22;11252;50.596;17.648;2023-02-12T00:58:22;5.20;92.20
22173;DHT22;11252;50.596;17.648;2023-02-12T01:00:50;5.20;92.20
22173;DHT22;11252;50.596;17.648;2023-02-12T01:03:17;5.20;92.20
22173;DHT22;11252;50.596;17.648;2023-02-12T01:05:45;5.20;92.20
22173;DHT22;11252;50.596;17.648;2023-02-12T01:08:14;5.20;92.20
22173;DHT22;11252;50.596;17.648;2023-02-12T01:10:42;5.20;92.20
22173;DHT22;11252;50.596;17.648;2023-02-12T01:13:14;5.20;92.20
22173;DHT22;11252;50.596;17.648;2023-02-12T01:15:41;5.20;92.20
22173;DHT22;11252;50.596;17.648;2023-02-12T01:18:09;5.20;92.20
22173;DHT22;11252;50.596;17.648;2023-02-12T01:20:38;5.10;92.20
22173;DHT22;11252;50.596;17.648;2023-02-12T01:23:06;5.20;92.20
22173;DHT22;11252;50.596;17.648;2023-02-12T01:25:34;5.10;92.20
22173;DHT22;11252;50.596;17.648;2023-02-12T01:28:01;5.10;92.20
22173;DHT22;11252;50.596;17.648;2023-02-12T01:30:29;5.20;92.20
22173;DHT22;11252;50.596;17.648;2023-02-12T01:32:56;5.10;92.20
22173;DHT22;11252;50.596;17.648;2023-02-12T01:35:23;5.20;92.20
22173;DHT22;11252;50.596;17.648;2023-02-12T01:37:50;5.20;92.20
22173;DHT22;11252;50.596;17.648;2023-02-12T01:40:18;5.20;92.20
22173;DHT22;11252;50.596;17.648;2023-02-12T01:42:45;5.20;92.20
22173;DHT22;11252;50.596;17.648;2023-02-12T01:47:42;5.20;92.20
22173;DHT22;11252;50.596;17.648;2023-02-12T01:50:13;5.20;92.20
22173;DHT22;11252;50.596;17.648;2023-02-12T01:52:45;5.20;92.20
22173;DHT22;11252;50.596;17.648;2023-02-12T01:55:14;5.20;92.20
22173;DHT22;11252;50.596;17.648;2023-02-12T01:57:43;5.20;92.20
22173;DHT22;11252;50.596;17.648;2023-02-12T02:00:15;5.20;92.20
22173;DHT22;11252;50.596;17.648;2023-02-12T02:02:55;5.20;92.20
22173;DHT22;11252;50.596;17.648;2023-02-12T02:07:59;5.20;92.20
22173;DHT22;11252;50.596;17.648;2023-02-12T02:10:28;5.20;92.20
22173;DHT22;11252;50.596;17.648;2023-02-12T02:12:57;5.20;92.20
22173;DHT22;11252;50.596;17.648;2023-02-12T02:15:46;5.20;92.20
22173;DHT22;11252;50.596;17.648;2023-02-12T02:41:40;5.10;92.20
22173;DHT22;11252;50.596;17.648;2023-02-12T02:44:20;5.10;92.20
22173;DHT22;11252;50.596;17.648;2023-02-12T02:46:50;5.10;92.20
22173;DHT22;11252;50.596;17.648;2023-02-12T02:49:27;5.10;92.20
22173;DHT22;11252;50.596;17.648;2023-02-12T02:52:06;5.10;92.20
22173;DHT22;11252;50.596;17.648;2023-02-12T02:54:44;5.10;92.20
22173;DHT22;11252;50.596;17.648;2023-02-12T02:57:33;5.00;92.20
22173;DHT22;11252;50.596;17.648;2023-02-12T03:00:11;5.00;92.20
22173;DHT22;11252;50.596;17.648;2023-02-12T03:02:42;5.00;92.20
22173;DHT22;11252;50.596;17.648;2023-02-12T03:05:21;5.10;92.20
22173;DHT22;11252;50.596;17.648;2023-02-12T03:07:55;5.10;92.20
22173;DHT22;11252;50.596;17.648;2023-02-12T03:10:33;5.00;92.20
22173;DHT22;11252;50.596;17.648;2023-02-12T03:13:25;5.10;92.20
22173;DHT22;11252;50.596;17.648;2023-02-12T03:16:17;5.00;92.20
22173;DHT22;11252;50.596;17.648;2023-02-12T03:18:55;5.00;92.20
22173;DHT22;11252;50.596;17.648;2023-02-12T03:21:39;5.00;92.20
22173;DHT22;11252;50.596;17.648;2023-02-12T03:24:15;5.00;92.20
22173;DHT22;11252;50.596;17.648;2023-02-12T03:27:06;5.00;92.20
22173;DHT22;11252;50.596;17.648;2023-02-12T03:29:35;5.00;92.20
22173;DHT22;11252;50.596;17.648;2023-02-12T03:32:23;5.00;92.20
22173;DHT22;11252;50.596;17.648;2023-02-12T03:37:34;4.90;92.20
22173;DHT22;11252;50.596;17.648;2023-02-12T03:40:18;5.00;92.20
22173;DHT22;11252;50.596;17.648;2023-02-12T03:43:03;4.90;92.20
22173;DHT22;11252;50.596;17.648;2023-02-12T03:45:44;4.90;92.20
22173;DHT22;11252;50.596;17.648;2023-02-12T03:51:10;5.00;92.20
22173;DHT22;11252;50.596;17.648;2023-02-12T03:53:42;5.00;92.20
22173;DHT22;11252;50.596;17.648;2023-02-12T03:56:18;5.00;92.20
22173;DHT22;11252;50.596;17.648;2023-02-12T03:58:46;5.00;92.20
22173;DHT22;11252;50.596;17.648;2023-02-12T04:01:14;5.00;92.20
22173;DHT22;11252;50.596;17.648;2023-02-12T04:03:41;5.00;92.20
22173;DHT22;11252;50.596;17.648;2023-02-12T04:06:30;5.00;92.20
22173;DHT22;11252;50.596;17.648;2023-02-12T04:09:01;5.00;92.20
22173;DHT22;11252;50.596;17.648;2023-02-12T04:11:53;5.00;92.20
22173;DHT22;11252;50.596;17.648;2023-02-12T04:14:31;5.00;92.20
22173;DHT22;11252;50.596;17.648;2023-02-12T04:36:39;4.90;92.20
22173;DHT22;11252;50.596;17.648;2023-02-12T04:39:11;4.90;92.20
22173;DHT22;11252;50.596;17.648;2023-02-12T04:41:41;4.90;92.20
22173;DHT22;11252;50.596;17.648;2023-02-12T04:44:38;4.90;92.20
22173;DHT22;11252;50.596;17.648;2023-02-12T04:47:06;4.90;92.20
22173;DHT22;11252;50.596;17.648;2023-02-12T04:49:33;4.80;92.20
22173;DHT22;11252;50.596;17.648;2023-02-12T04:52:00;4.80;92.20
22173;DHT22;11252;50.596;17.648;2023-02-12T04:54:27;4.90;92.20
22173;DHT22;11252;50.596;17.648;2023-02-12T04:56:55;4.90;92.20
22173;DHT22;11252;50.596;17.648;2023-02-12T04:59:22;4.90;92.20
22173;DHT22;11252;50.596;17.648;2023-02-12T05:01:50;4.90;92.20
22173;DHT22;11252;50.596;17.648;2023-02-12T05:04:17;4.80;92.20
22173;DHT22;11252;50.596;17.648;2023-02-12T05:06:45;4.80;92.20
22173;DHT22;11252;50.596;17.648;2023-02-12T05:09:14;4.80;92.20
22173;DHT22;11252;50.596;17.648;2023-02-12T05:11:42;4.80;92.20
22173;DHT22;11252;50.596;17.648;2023-02-12T05:14:09;4.80;92.20
22173;DHT22;11252;50.596;17.648;2023-02-12T05:16:37;4.70;92.20
22173;DHT22;11252;50.596;17.648;2023-02-12T05:19:04;4.80;92.20
22173;DHT22;11252;50.596;17.648;2023-02-12T05:21:32;4.80;92.20
22173;DHT22;11252;50.596;17.648;2023-02-12T05:24:01;4.70;92.20
22173;DHT22;11252;50.596;17.648;2023-02-12T05:26:29;4.70;92.20
22173;DHT22;11252;50.596;17.648;2023-02-12T05:28:56;4.70;92.20
22173;DHT22;11252;50.596;17.648;2023-02-12T05:31:23;4.70;92.20
22173;DHT22;11252;50.596;17.648;2023-02-12T05:33:51;4.70;92.20
22173;DHT22;11252;50.596;17.648;2023-02-12T05:36:21;4.70;92.20
22173;DHT22;11252;50.596;17.648;2023-02-12T05:38:49;4.70;92.20
22173;DHT22;11252;50.596;17.648;2023-02-12T05:41:20;4.70;92.20
22173;DHT22;11252;50.596;17.648;2023-02-12T05:43:51;4.70;92.20
22173;DHT22;11252;50.596;17.648;2023-02-12T05:46:20;4.70;92.20
22173;DHT22;11252;50.596;17.648;2023-02-12T05:48:48;4.70;92.20
22173;DHT22;11252;50.596;17.648;2023-02-12T05:51:18;4.60;92.20
22173;DHT22;11252;50.596;17.648;2023-02-12T05:53:49;4.60;92.20
22173;DHT22;11252;50.596;17.648;2023-02-12T05:56:21;4.60;92.20
22173;DHT22;11252;50.596;17.648;2023-02-12T05:58:59;4.60;92.20
22173;DHT22;11252;50.596;17.648;2023-02-12T06:01:33;4.60;92.20
22173;DHT22;11252;50.596;17.648;2023-02-12T06:04:03;4.60;92.20
22173;DHT22;11252;50.596;17.648;2023-02-12T06:06:31;4.60;92.20
22173;DHT22;11252;50.596;17.648;2023-02-12T06:08:59;4.60;92.20
22173;DHT22;11252;50.596;17.648;2023-02-12T06:11:27;4.70;92.20
22173;DHT22;11252;50.596;17.648;2023-02-12T06:13:54;4.60;92.20
22173;DHT22;11252;50.596;17.648;2023-02-12T06:16:26;4.60;92.20
22173;DHT22;11252;50.596;17.648;2023-02-12T06:18:54;4.60;92.20
22173;DHT22;11252;50.596;17.648;2023-02-12T06:21:24;4.70;92.20
22173;DHT22;11252;50.596;17.648;2023-02-12T06:23:54;4.60;92.20
22173;DHT22;11252;50.596;17.648;2023-02-12T06:26:22;4.60;92.20
22173;DHT22;11252;50.596;17.648;2023-02-12T06:28:50;4.60;92.20
22173;DHT22;11252;50.596;17.648;2023-02-12T06:31:24;4.70;92.20
22173;DHT22;11252;50.596;17.648;2023-02-12T06:33:53;4.70;92.20
22173;DHT22;11252;50.596;17.648;2023-02-12T06:36:21;4.70;92.20
22173;DHT22;11252;50.596;17.648;2023-02-12T06:38:49;4.70;92.20
22173;DHT22;11252;50.596;17.648;2023-02-12T06:41:17;4.70;92.20
22173;DHT22;11252;50.596;17.648;2023-02-12T06:43:45;4.70;92.20
22173;DHT22;11252;50.596;17.648;2023-02-12T06:46:13;4.70;92.20
22173;DHT22;11252;50.596;17.648;2023-02-12T06:48:40;4.70;92.20
22173;DHT22;11252;50.596;17.648;2023-02-12T06:51:14;4.70;92.20
22173;DHT22;11252;50.596;17.648;2023-02-12T06:53:43;4.70;92.20
22173;DHT22;11252;50.596;17.648;2023-02-12T06:56:13;4.70;92.20
22173;DHT22;11252;50.596;17.648;2023-02-12T06:58:45;4.70;92.20
22173;DHT22;11252;50.596;17.648;2023-02-12T07:01:15;4.70;92.20
22173;DHT22;11252;50.596;17.648;2023-02-12T07:03:49;4.70;92.20
22173;DHT22;11252;50.596;17.648;2023-02-12T07:06:17;4.70;92.20
22173;DHT22;11252;50.596;17.648;2023-02-12T07:08:44;4.70;92.20
22173;DHT22;11252;50.596;17.648;2023-02-12T07:11:12;4.80;92.20
22173;DHT22;11252;50.596;17.648;2023-02-12T07:13:40;4.80;92.20
22173;DHT22;11252;50.596;17.648;2023-02-12T07:16:11;4.80;92.20
22173;DHT22;11252;50.596;17.648;2023-02-12T07:18:39;4.90;92.20
22173;DHT22;11252;50.596;17.648;2023-02-12T07:21:07;4.90;92.20
22173;DHT22;11252;50.596;17.648;2023-02-12T07:23:35;4.90;92.20
22173;DHT22;11252;50.596;17.648;2023-02-12T07:26:06;4.90;92.20
22173;DHT22;11252;50.596;17.648;2023-02-12T07:28:34;5.00;92.20
22173;DHT22;11252;50.596;17.648;2023-02-12T07:31:19;5.00;92.20
22173;DHT22;11252;50.596;17.648;2023-02-12T07:33:47;5.00;92.20
22173;DHT22;11252;50.596;17.648;2023-02-12T07:36:17;5.00;92.20
22173;DHT22;11252;50.596;17.648;2023-02-12T07:38:44;5.00;92.20
22173;DHT22;11252;50.596;17.648;2023-02-12T07:41:15;5.00;92.20
22173;DHT22;11252;50.596;17.648;2023-02-12T07:43:44;5.00;92.20
22173;DHT22;11252;50.596;17.648;2023-02-12T07:46:27;5.10;92.20
22173;DHT22;11252;50.596;17.648;2023-02-12T07:48:58;5.10;92.20
22173;DHT22;11252;50.596;17.648;2023-02-12T07:51:27;5.20;92.20
22173;DHT22;11252;50.596;17.648;2023-02-12T07:53:54;5.20;92.20
22173;DHT22;11252;50.596;17.648;2023-02-12T07:56:26;5.20;92.20
22173;DHT22;11252;50.596;17.648;2023-02-12T07:59:02;5.20;92.20
22173;DHT22;11252;50.596;17.648;2023-02-12T08:01:41;5.30;92.20
22173;DHT22;11252;50.596;17.648;2023-02-12T08:04:11;5.30;92.20
22173;DHT22;11252;50.596;17.648;2023-02-12T08:06:47;5.30;92.20
22173;DHT22;11252;50.596;17.648;2023-02-12T08:09:19;5.30;92.20
22173;DHT22;11252;50.596;17.648;2023-02-12T08:11:47;5.40;92.20
22173;DHT22;11252;50.596;17.648;2023-02-12T08:14:17;5.40;92.20
22173;DHT22;11252;50.596;17.648;2023-02-12T08:16:45;5.40;92.20
22173;DHT22;11252;50.596;17.648;2023-02-12T08:19:13;5.40;92.20
22173;DHT22;11252;50.596;17.648;2023-02-12T08:21:52;5.40;92.20
22173;DHT22;11252;50.596;17.648;2023-02-12T08:24:20;5.50;92.20
22173;DHT22;11252;50.596;17.648;2023-02-12T08:26:50;5.50;92.20
22173;DHT22;11252;50.596;17.648;2023-02-12T08:29:24;5.50;92.20
22173;DHT22;11252;50.596;17.648;2023-02-12T08:32:00;5.50;92.20
22173;DHT22;11252;50.596;17.648;2023-02-12T08:34:33;5.60;92.20
22173;DHT22;11252;50.596;17.648;2023-02-12T08:37:04;5.60;92.20
22173;DHT22;11252;50.596;17.648;2023-02-12T08:39:32;5.70;92.20
22173;DHT22;11252;50.596;17.648;2023-02-12T08:42:00;5.80;92.20
22173;DHT22;11252;50.596;17.648;2023-02-12T08:44:28;5.80;92.20
22173;DHT22;11252;50.596;17.648;2023-02-12T08:46:55;5.90;92.20
22173;DHT22;11252;50.596;17.648;2023-02-12T08:49:26;6.00;92.20
22173;DHT22;11252;50.596;17.648;2023-02-12T08:51:55;6.00;92.20
22173;DHT22;11252;50.596;17.648;2023-02-12T08:54:26;6.10;92.20
22173;DHT22;11252;50.596;17.648;2023-02-12T08:56:55;6.10;92.20
22173;DHT22;11252;50.596;17.648;2023-02-12T08:59:23;6.10;92.20
22173;DHT22;11252;50.596;17.648;2023-02-12T09:01:51;6.10;92.20
22173;DHT22;11252;50.596;17.648;2023-02-12T09:04:21;6.10;92.20
22173;DHT22;11252;50.596;17.648;2023-02-12T09:06:49;6.10;92.20
22173;DHT22;11252;50.596;17.648;2023-02-12T09:09:17;6.20;92.20
22173;DHT22;11252;50.596;17.648;2023-02-12T09:11:45;6.20;92.20
22173;DHT22;11252;50.596;17.648;2023-02-12T09:14:15;6.20;92.20
22173;DHT22;11252;50.596;17.648;2023-02-12T09:16:42;6.20;92.20
22173;DHT22;11252;50.596;17.648;2023-02-12T09:19:12;6.00;92.20
22173;DHT22;11252;50.596;17.648;2023-02-12T09:21:40;5.90;92.20
22173;DHT22;11252;50.596;17.648;2023-02-12T09:24:08;5.80;92.20
22173;DHT22;11252;50.596;17.648;2023-02-12T09:26:36;5.70;92.20
22173;DHT22;11252;50.596;17.648;2023-02-12T09:29:05;5.60;92.20
22173;DHT22;11252;50.596;17.648;2023-02-12T09:31:32;5.60;92.20
22173;DHT22;11252;50.596;17.648;2023-02-12T09:34:03;5.70;92.20
22173;DHT22;11252;50.596;17.648;2023-02-12T09:36:31;5.80;92.20
22173;DHT22;11252;50.596;17.648;2023-02-12T09:38:59;6.00;92.20
22173;DHT22;11252;50.596;17.648;2023-02-12T09:52:24;6.50;92.20
22173;DHT22;11252;50.596;17.648;2023-02-12T09:54:55;6.40;92.20
22173;DHT22;11252;50.596;17.648;2023-02-12T09:57:34;6.40;92.20
22173;DHT22;11252;50.596;17.648;2023-02-12T10:00:17;6.30;92.20
22173;DHT22;11252;50.596;17.648;2023-02-12T10:02:50;6.30;92.20
22173;DHT22;11252;50.596;17.648;2023-02-12T10:05:35;6.30;92.20
22173;DHT22;11252;50.596;17.648;2023-02-12T10:08:37;6.40;92.20
22173;DHT22;11252;50.596;17.648;2023-02-12T10:14:23;6.80;92.20
22173;DHT22;11252;50.596;17.648;2023-02-12T10:25:30;7.40;92.20
22173;DHT22;11252;50.596;17.648;2023-02-12T10:27:58;7.30;92.20
22173;DHT22;11252;50.596;17.648;2023-02-12T10:41:54;7.30;92.20
22173;DHT22;11252;50.596;17.648;2023-02-12T10:44:22;7.30;92.20
22173;DHT22;11252;50.596;17.648;2023-02-12T10:46:50;7.40;92.20
22173;DHT22;11252;50.596;17.648;2023-02-12T10:49:19;7.40;92.20
22173;DHT22;11252;50.596;17.648;2023-02-12T10:54:38;7.70;92.20
22173;DHT22;11252;50.596;17.648;2023-02-12T10:59:49;7.70;92.20
22173;DHT22;11252;50.596;17.648;2023-02-12T11:02:29;7.80;92.20
22173;DHT22;11252;50.596;17.648;2023-02-12T11:04:59;7.90;92.20
22173;DHT22;11252;50.596;17.648;2023-02-12T11:07:27;8.10;92.20
22173;DHT22;11252;50.596;17.648;2023-02-12T11:09:56;8.30;92.20
22173;DHT22;11252;50.596;17.648;2023-02-12T11:12:30;8.40;92.20
22173;DHT22;11252;50.596;17.648;2023-02-12T11:15:03;8.40;92.20
22173;DHT22;11252;50.596;17.648;2023-02-12T11:17:42;8.30;92.20
22173;DHT22;11252;50.596;17.648;2023-02-12T11:23:00;8.60;92.20
22173;DHT22;11252;50.596;17.648;2023-02-12T11:25:31;8.70;92.20
22173;DHT22;11252;50.596;17.648;2023-02-12T11:30:29;8.80;92.20
22173;DHT22;11252;50.596;17.648;2023-02-12T11:36:00;8.80;92.20
22173;DHT22;11252;50.596;17.648;2023-02-12T11:38:38;8.70;92.20
22173;DHT22;11252;50.596;17.648;2023-02-12T11:41:18;8.60;92.20
22173;DHT22;11252;50.596;17.648;2023-02-12T11:43:48;8.60;92.20
22173;DHT22;11252;50.596;17.648;2023-02-12T11:46:24;8.60;92.20
22173;DHT22;11252;50.596;17.648;2023-02-12T11:48:54;8.60;92.20
22173;DHT22;11252;50.596;17.648;2023-02-12T11:51:28;8.70;92.20
22173;DHT22;11252;50.596;17.648;2023-02-12T11:54:03;8.70;92.20
22173;DHT22;11252;50.596;17.648;2023-02-12T11:56:44;8.70;92.20
22173;DHT22;11252;50.596;17.648;2023-02-12T11:59:24;8.90;92.20
22173;DHT22;11252;50.596;17.648;2023-02-12T12:02:00;9.00;92.20
22173;DHT22;11252;50.596;17.648;2023-02-12T12:04:32;8.80;92.20
22173;DHT22;11252;50.596;17.648;2023-02-12T12:07:17;8.70;92.20
22173;DHT22;11252;50.596;17.648;2023-02-12T12:09:57;8.60;92.20
22173;DHT22;11252;50.596;17.648;2023-02-12T12:12:40;8.40;92.20
22173;DHT22;11252;50.596;17.648;2023-02-12T12:15:39;8.20;92.20
22173;DHT22;11252;50.596;17.648;2023-02-12T12:18:44;8.10;92.20
22173;DHT22;11252;50.596;17.648;2023-02-12T12:22:03;8.10;92.20
22173;DHT22;11252;50.596;17.648;2023-02-12T12:25:16;8.10;92.20
22173;DHT22;11252;50.596;17.648;2023-02-12T12:30:48;8.10;92.20
22173;DHT22;11252;50.596;17.648;2023-02-12T12:39:14;8.30;92.20
22173;DHT22;11252;50.596;17.648;2023-02-12T12:45:01;8.40;92.20
22173;DHT22;11252;50.596;17.648;2023-02-12T12:53:33;8.70;92.20
22173;DHT22;11252;50.596;17.648;2023-02-12T13:07:12;9.10;92.20
22173;DHT22;11252;50.596;17.648;2023-02-12T13:10:09;9.00;92.20
22173;DHT22;11252;50.596;17.648;2023-02-12T13:27:24;9.30;92.20
22173;DHT22;11252;50.596;17.648;2023-02-12T13:35:29;10.10;92.20
22173;DHT22;11252;50.596;17.648;2023-02-12T13:37:58;10.90;92.20
22173;DHT22;11252;50.596;17.648;2023-02-12T13:40:28;11.70;92.20
22173;DHT22;11252;50.596;17.648;2023-02-12T13:43:28;12.00;92.20
22173;DHT22;11252;50.596;17.648;2023-02-12T13:51:47;11.70;92.20
22173;DHT22;11252;50.596;17.648;2023-02-12T13:57:00;10.90;92.20
22173;DHT22;11252;50.596;17.648;2023-02-12T14:01:59;10.30;92.20
22173;DHT22;11252;50.596;17.648;2023-02-12T14:06:57;10.30;92.20
22173;DHT22;11252;50.596;17.648;2023-02-12T14:14:53;12.40;90.90
22173;DHT22;11252;50.596;17.648;2023-02-12T14:27:47;10.20;92.20
22173;DHT22;11252;50.596;17.648;2023-02-12T14:35:39;9.40;92.20
22173;DHT22;11252;50.596;17.648;2023-02-12T14:40:47;8.80;92.20
22173;DHT22;11252;50.596;17.648;2023-02-12T14:49:02;8.40;92.20
22173;DHT22;11252;50.596;17.648;2023-02-12T14:56:55;8.20;92.20
22173;DHT22;11252;50.596;17.648;2023-02-12T14:59:25;8.20;92.20
22173;DHT22;11252;50.596;17.648;2023-02-12T15:01:54;8.20;92.20
22173;DHT22;11252;50.596;17.648;2023-02-12T15:04:30;8.20;92.20
22173;DHT22;11252;50.596;17.648;2023-02-12T15:07:06;8.20;92.20
22173;DHT22;11252;50.596;17.648;2023-02-12T15:10:02;8.20;92.20
22173;DHT22;11252;50.596;17.648;2023-02-12T15:12:46;8.20;92.20
22173;DHT22;11252;50.596;17.648;2023-02-12T15:15:46;8.10;92.20
22173;DHT22;11252;50.596;17.648;2023-02-12T15:18:21;8.00;92.20
22173;DHT22;11252;50.596;17.648;2023-02-12T15:21:38;7.90;92.20
22173;DHT22;11252;50.596;17.648;2023-02-12T15:23:41;7.80;92.20
22173;DHT22;11252;50.596;17.648;2023-02-12T15:26:20;7.80;92.20
22173;DHT22;11252;50.596;17.648;2023-02-12T15:28:51;7.80;92.20
22173;DHT22;11252;50.596;17.648;2023-02-12T15:31:25;7.80;92.20
22173;DHT22;11252;50.596;17.648;2023-02-12T15:33:54;7.70;92.20
22173;DHT22;11252;50.596;17.648;2023-02-12T15:36:24;7.50;92.20
22173;DHT22;11252;50.596;17.648;2023-02-12T15:38:57;7.40;92.20
22173;DHT22;11252;50.596;17.648;2023-02-12T15:41:36;7.30;92.20
22173;DHT22;11252;50.596;17.648;2023-02-12T15:44:31;7.20;92.20
22173;DHT22;11252;50.596;17.648;2023-02-12T15:47:11;7.10;92.20
22173;DHT22;11252;50.596;17.648;2023-02-12T15:49:41;7.00;92.20
22173;DHT22;11252;50.596;17.648;2023-02-12T15:52:16;6.90;92.20
22173;DHT22;11252;50.596;17.648;2023-02-12T15:54:45;6.90;92.20
22173;DHT22;11252;50.596;17.648;2023-02-12T15:57:20;6.80;92.20
22173;DHT22;11252;50.596;17.648;2023-02-12T15:59:53;6.80;92.20
22173;DHT22;11252;50.596;17.648;2023-02-12T16:02:29;6.70;92.20
22173;DHT22;11252;50.596;17.648;2023-02-12T16:05:01;6.60;92.20
22173;DHT22;11252;50.596;17.648;2023-02-12T16:07:33;6.50;92.20
22173;DHT22;11252;50.596;17.648;2023-02-12T16:10:02;6.40;92.20
22173;DHT22;11252;50.596;17.648;2023-02-12T16:12:32;6.40;92.20
22173;DHT22;11252;50.596;17.648;2023-02-12T16:15:03;6.30;92.20
22173;DHT22;11252;50.596;17.648;2023-02-12T16:17:35;6.20;92.20
22173;DHT22;11252;50.596;17.648;2023-02-12T16:22:40;5.90;92.20
22173;DHT22;11252;50.596;17.648;2023-02-12T16:25:20;5.80;92.20
22173;DHT22;11252;50.596;17.648;2023-02-12T16:27:55;5.70;92.20
22173;DHT22;11252;50.596;17.648;2023-02-12T16:30:39;5.70;92.20
22173;DHT22;11252;50.596;17.648;2023-02-12T16:36:07;5.70;92.20
22173;DHT22;11252;50.596;17.648;2023-02-12T16:46:51;5.40;92.20
22173;DHT22;11252;50.596;17.648;2023-02-12T16:49:22;5.40;92.20
22173;DHT22;11252;50.596;17.648;2023-02-12T16:51:51;5.40;92.20
22173;DHT22;11252;50.596;17.648;2023-02-12T16:54:31;5.40;92.20
22173;DHT22;11252;50.596;17.648;2023-02-12T16:57:00;5.40;92.20
22173;DHT22;11252;50.596;17.648;2023-02-12T16:59:28;5.40;92.20
22173;DHT22;11252;50.596;17.648;2023-02-12T17:02:01;5.40;92.20
22173;DHT22;11252;50.596;17.648;2023-02-12T17:04:30;5.30;92.20
22173;DHT22;11252;50.596;17.648;2023-02-12T17:06:57;5.30;92.20
22173;DHT22;11252;50.596;17.648;2023-02-12T17:09:24;5.30;92.20
22173;DHT22;11252;50.596;17.648;2023-02-12T17:11:52;5.20;92.20
22173;DHT22;11252;50.596;17.648;2023-02-12T17:14:19;5.10;92.20
22173;DHT22;11252;50.596;17.648;2023-02-12T17:16:47;5.10;92.20
22173;DHT22;11252;50.596;17.648;2023-02-12T17:19:15;5.00;92.20
22173;DHT22;11252;50.596;17.648;2023-02-12T17:21:45;4.90;92.20
22173;DHT22;11252;50.596;17.648;2023-02-12T17:24:24;4.80;92.20
22173;DHT22;11252;50.596;17.648;2023-02-12T17:26:52;4.60;92.20
22173;DHT22;11252;50.596;17.648;2023-02-12T17:29:22;4.60;92.20
22173;DHT22;11252;50.596;17.648;2023-02-12T17:31:50;4.50;92.20
22173;DHT22;11252;50.596;17.648;2023-02-12T17:34:20;4.30;92.20
22173;DHT22;11252;50.596;17.648;2023-02-12T17:36:49;4.20;92.20
22173;DHT22;11252;50.596;17.648;2023-02-12T17:39:17;4.10;92.20
22173;DHT22;11252;50.596;17.648;2023-02-12T17:41:45;4.00;92.20
22173;DHT22;11252;50.596;17.648;2023-02-12T17:44:12;3.80;92.20
22173;DHT22;11252;50.596;17.648;2023-02-12T17:46:42;3.70;92.20
22173;DHT22;11252;50.596;17.648;2023-02-12T17:49:09;3.60;92.20
22173;DHT22;11252;50.596;17.648;2023-02-12T17:51:37;3.60;92.20
22173;DHT22;11252;50.596;17.648;2023-02-12T17:54:04;3.60;92.20
22173;DHT22;11252;50.596;17.648;2023-02-12T17:56:31;3.60;92.20
22173;DHT22;11252;50.596;17.648;2023-02-12T17:58:59;3.60;92.20
22173;DHT22;11252;50.596;17.648;2023-02-12T18:01:27;3.50;92.20
22173;DHT22;11252;50.596;17.648;2023-02-12T18:03:57;3.40;92.20
22173;DHT22;11252;50.596;17.648;2023-02-12T18:06:29;3.40;92.20
22173;DHT22;11252;50.596;17.648;2023-02-12T18:08:57;3.40;92.20
22173;DHT22;11252;50.596;17.648;2023-02-12T18:11:25;3.30;92.20
22173;DHT22;11252;50.596;17.648;2023-02-12T18:13:55;3.20;92.20
22173;DHT22;11252;50.596;17.648;2023-02-12T18:16:25;3.20;92.20
22173;DHT22;11252;50.596;17.648;2023-02-12T18:18:54;3.10;92.20
22173;DHT22;11252;50.596;17.648;2023-02-12T18:21:23;3.10;92.20
22173;DHT22;11252;50.596;17.648;2023-02-12T18:23:52;3.10;92.20
22173;DHT22;11252;50.596;17.648;2023-02-12T18:26:20;3.20;92.20
22173;DHT22;11252;50.596;17.648;2023-02-12T18:28:48;3.20;92.20
22173;DHT22;11252;50.596;17.648;2023-02-12T18:31:18;3.20;92.20
22173;DHT22;11252;50.596;17.648;2023-02-12T18:33:46;3.30;92.20
22173;DHT22;11252;50.596;17.648;2023-02-12T18:36:16;3.30;92.20
22173;DHT22;11252;50.596;17.648;2023-02-12T18:38:45;3.30;92.20
22173;DHT22;11252;50.596;17.648;2023-02-12T18:41:26;3.30;92.20
22173;DHT22;11252;50.596;17.648;2023-02-12T18:43:56;3.30;92.20
22173;DHT22;11252;50.596;17.648;2023-02-12T18:46:27;3.20;92.20
22173;DHT22;11252;50.596;17.648;2023-02-12T18:48:55;3.20;92.20
22173;DHT22;11252;50.596;17.648;2023-02-12T18:51:25;3.20;92.20
22173;DHT22;11252;50.596;17.648;2023-02-12T18:54:00;3.20;92.20
22173;DHT22;11252;50.596;17.648;2023-02-12T18:56:29;3.20;92.20
22173;DHT22;11252;50.596;17.648;2023-02-12T18:58:58;3.10;92.20
22173;DHT22;11252;50.596;17.648;2023-02-12T19:01:27;3.10;92.20
22173;DHT22;11252;50.596;17.648;2023-02-12T19:03:57;3.10;92.20
22173;DHT22;11252;50.596;17.648;2023-02-12T19:06:27;3.10;92.20
22173;DHT22;11252;50.596;17.648;2023-02-12T19:08:56;3.10;92.20
22173;DHT22;11252;50.596;17.648;2023-02-12T19:11:24;3.10;92.20
22173;DHT22;11252;50.596;17.648;2023-02-12T19:13:52;3.10;92.20
22173;DHT22;11252;50.596;17.648;2023-02-12T19:16:20;3.20;92.20
22173;DHT22;11252;50.596;17.648;2023-02-12T19:18:54;3.10;92.20
22173;DHT22;11252;50.596;17.648;2023-02-12T19:21:22;3.10;92.20
22173;DHT22;11252;50.596;17.648;2023-02-12T19:23:54;3.10;92.20
22173;DHT22;11252;50.596;17.648;2023-02-12T19:26:21;3.10;92.20
22173;DHT22;11252;50.596;17.648;2023-02-12T19:28:49;3.10;92.20
22173;DHT22;11252;50.596;17.648;2023-02-12T19:31:31;3.00;92.20
22173;DHT22;11252;50.596;17.648;2023-02-12T19:34:14;3.00;92.20